sensor_id;sensor_type;location;lat;lon;timestamp;P1;durP1;ratioP1;P2;durP2;ratioP2
35120;SDS011;21297;52.008;4.576;2024-02-04T00:00:00;49.97;;;15.27;;
35120;SDS011;21297;52.008;4.576;2024-02-04T00:02:46;42.63;;;14.25;;
35120;SDS011;21297;52.008;4.576;2024-02-04T00:05:32;43.33;;;15.27;;
35120;SDS011;21297;52.008;4.576;2024-02-04T00:08:17;46.05;;;13.00;;
35120;SDS011;21297;52.008;4.576;2024-02-04T00:11:03;39.15;;;12.80;;
35120;SDS011;21297;52.008;4.576;2024-02-04T00:13:50;32.95;;;12.68;;
35120;SDS011;21297;52.008;4.576;2024-02-04T00:16:35;35.47;;;12.55;;
35120;SDS011;21297;52.008;4.576;2024-02-04T00:19:21;42.88;;;13.20;;
35120;SDS011;21297;52.008;4.576;2024-02-04T00:22:07;37.65;;;13.13;;
35120;SDS011;21297;52.008;4.576;2024-02-04T00:24:53;38.47;;;12.50;;
35120;SDS011;21297;52.008;4.576;2024-02-04T00:27:38;29.23;;;11.73;;
35120;SDS011;21297;52.008;4.576;2024-02-04T00:30:24;34.13;;;12.23;;
35120;SDS011;21297;52.008;4.576;2024-02-04T00:33:11;31.90;;;12.63;;
35120;SDS011;21297;52.008;4.576;2024-02-04T00:35:57;35.08;;;12.65;;
35120;SDS011;21297;52.008;4.576;2024-02-04T00:38:43;33.58;;;12.70;;
35120;SDS011;21297;52.008;4.576;2024-02-04T00:41:29;38.42;;;14.82;;
35120;SDS011;21297;52.008;4.576;2024-02-04T00:44:14;28.95;;;11.52;;
35120;SDS011;21297;52.008;4.576;2024-02-04T00:47:00;33.38;;;13.07;;
35120;SDS011;21297;52.008;4.576;2024-02-04T00:49:46;35.25;;;12.95;;
35120;SDS011;21297;52.008;4.576;2024-02-04T00:52:32;39.08;;;13.48;;
35120;SDS011;21297;52.008;4.576;2024-02-04T00:55:17;35.08;;;13.23;;
35120;SDS011;21297;52.008;4.576;2024-02-04T00:58:03;37.05;;;12.95;;
35120;SDS011;21297;52.008;4.576;2024-02-04T01:00:49;39.42;;;14.70;;
35120;SDS011;21297;52.008;4.576;2024-02-04T01:03:34;35.67;;;13.65;;
35120;SDS011;21297;52.008;4.576;2024-02-04T01:06:20;38.22;;;13.57;;
35120;SDS011;21297;52.008;4.576;2024-02-04T01:09:06;38.30;;;12.80;;
35120;SDS011;21297;52.008;4.576;2024-02-04T01:11:52;31.95;;;12.40;;
35120;SDS011;21297;52.008;4.576;2024-02-04T01:14:38;37.10;;;11.80;;
35120;SDS011;21297;52.008;4.576;2024-02-04T01:17:24;32.55;;;13.13;;
35120;SDS011;21297;52.008;4.576;2024-02-04T01:20:09;43.35;;;13.40;;
35120;SDS011;21297;52.008;4.576;2024-02-04T01:22:55;29.25;;;12.13;;
35120;SDS011;21297;52.008;4.576;2024-02-04T01:25:41;42.45;;;13.15;;
35120;SDS011;21297;52.008;4.576;2024-02-04T01:28:26;38.38;;;14.73;;
35120;SDS011;21297;52.008;4.576;2024-02-04T01:31:12;45.88;;;15.07;;
35120;SDS011;21297;52.008;4.576;2024-02-04T01:33:58;51.50;;;16.05;;
35120;SDS011;21297;52.008;4.576;2024-02-04T01:36:43;36.47;;;16.85;;
35120;SDS011;21297;52.008;4.576;2024-02-04T01:39:29;39.65;;;15.70;;
35120;SDS011;21297;52.008;4.576;2024-02-04T01:42:15;43.45;;;15.75;;
35120;SDS011;21297;52.008;4.576;2024-02-04T01:45:00;41.38;;;15.60;;
35120;SDS011;21297;52.008;4.576;2024-02-04T01:47:46;36.00;;;15.40;;
35120;SDS011;21297;52.008;4.576;2024-02-04T01:50:32;31.88;;;14.57;;
35120;SDS011;21297;52.008;4.576;2024-02-04T01:53:17;38.67;;;14.18;;
35120;SDS011;21297;52.008;4.576;2024-02-04T01:56:08;32.03;;;13.80;;
35120;SDS011;21297;52.008;4.576;2024-02-04T01:58:54;35.67;;;14.07;;
35120;SDS011;21297;52.008;4.576;2024-02-04T02:01:39;42.10;;;13.98;;
35120;SDS011;21297;52.008;4.576;2024-02-04T02:04:27;31.52;;;13.60;;
35120;SDS011;21297;52.008;4.576;2024-02-04T02:07:13;42.58;;;14.70;;
35120;SDS011;21297;52.008;4.576;2024-02-04T02:10:00;38.30;;;14.80;;
35120;SDS011;21297;52.008;4.576;2024-02-04T02:12:47;33.47;;;13.48;;
35120;SDS011;21297;52.008;4.576;2024-02-04T02:15:40;37.40;;;13.55;;
35120;SDS011;21297;52.008;4.576;2024-02-04T02:18:44;40.63;;;14.98;;
35120;SDS011;21297;52.008;4.576;2024-02-04T02:21:56;37.95;;;14.32;;
35120;SDS011;21297;52.008;4.576;2024-02-04T02:24:46;40.25;;;13.10;;
35120;SDS011;21297;52.008;4.576;2024-02-04T02:27:32;36.95;;;12.13;;
35120;SDS011;21297;52.008;4.576;2024-02-04T02:30:18;34.30;;;11.60;;
35120;SDS011;21297;52.008;4.576;2024-02-04T02:33:04;41.33;;;12.98;;
35120;SDS011;21297;52.008;4.576;2024-02-04T02:35:53;32.38;;;10.63;;
35120;SDS011;21297;52.008;4.576;2024-02-04T02:42:05;47.88;;;12.82;;
35120;SDS011;21297;52.008;4.576;2024-02-04T02:44:51;37.00;;;11.65;;
35120;SDS011;21297;52.008;4.576;2024-02-04T02:47:39;37.33;;;11.73;;
35120;SDS011;21297;52.008;4.576;2024-02-04T02:50:27;32.63;;;11.23;;
35120;SDS011;21297;52.008;4.576;2024-02-04T02:53:13;34.08;;;10.43;;
35120;SDS011;21297;52.008;4.576;2024-02-04T02:55:59;33.05;;;10.82;;
35120;SDS011;21297;52.008;4.576;2024-02-04T02:58:44;41.20;;;12.52;;
35120;SDS011;21297;52.008;4.576;2024-02-04T03:01:30;43.88;;;11.85;;
35120;SDS011;21297;52.008;4.576;2024-02-04T03:04:16;40.28;;;13.60;;
35120;SDS011;21297;52.008;4.576;2024-02-04T03:07:01;36.90;;;13.82;;
35120;SDS011;21297;52.008;4.576;2024-02-04T03:09:47;38.63;;;14.52;;
35120;SDS011;21297;52.008;4.576;2024-02-04T03:12:33;35.13;;;13.20;;
35120;SDS011;21297;52.008;4.576;2024-02-04T03:15:18;36.38;;;13.82;;
35120;SDS011;21297;52.008;4.576;2024-02-04T03:18:04;35.33;;;14.05;;
35120;SDS011;21297;52.008;4.576;2024-02-04T03:20:50;33.40;;;15.73;;
35120;SDS011;21297;52.008;4.576;2024-02-04T03:23:35;38.05;;;17.40;;
35120;SDS011;21297;52.008;4.576;2024-02-04T03:26:21;43.45;;;16.33;;
35120;SDS011;21297;52.008;4.576;2024-02-04T03:29:07;41.53;;;17.00;;
35120;SDS011;21297;52.008;4.576;2024-02-04T03:31:53;44.63;;;17.33;;
35120;SDS011;21297;52.008;4.576;2024-02-04T03:34:41;41.53;;;17.65;;
35120;SDS011;21297;52.008;4.576;2024-02-04T03:37:27;41.78;;;15.80;;
35120;SDS011;21297;52.008;4.576;2024-02-04T03:40:12;48.45;;;15.63;;
35120;SDS011;21297;52.008;4.576;2024-02-04T03:42:58;48.25;;;16.65;;
35120;SDS011;21297;52.008;4.576;2024-02-04T03:45:44;57.28;;;19.25;;
35120;SDS011;21297;52.008;4.576;2024-02-04T03:48:30;42.90;;;15.82;;
35120;SDS011;21297;52.008;4.576;2024-02-04T03:51:16;42.72;;;16.27;;
35120;SDS011;21297;52.008;4.576;2024-02-04T03:54:04;39.70;;;17.52;;
35120;SDS011;21297;52.008;4.576;2024-02-04T03:56:50;48.28;;;19.40;;
35120;SDS011;21297;52.008;4.576;2024-02-04T03:59:36;42.30;;;17.67;;
35120;SDS011;21297;52.008;4.576;2024-02-04T04:02:22;51.90;;;19.05;;
35120;SDS011;21297;52.008;4.576;2024-02-04T04:05:11;57.90;;;19.38;;
35120;SDS011;21297;52.008;4.576;2024-02-04T04:07:59;47.10;;;19.58;;
35120;SDS011;21297;52.008;4.576;2024-02-04T04:10:45;61.22;;;18.70;;
35120;SDS011;21297;52.008;4.576;2024-02-04T04:13:31;43.60;;;17.42;;
35120;SDS011;21297;52.008;4.576;2024-02-04T04:16:20;41.20;;;18.15;;
35120;SDS011;21297;52.008;4.576;2024-02-04T04:19:07;48.63;;;21.63;;
35120;SDS011;21297;52.008;4.576;2024-02-04T04:21:53;50.63;;;20.35;;
35120;SDS011;21297;52.008;4.576;2024-02-04T04:24:39;44.20;;;19.10;;
35120;SDS011;21297;52.008;4.576;2024-02-04T04:27:25;42.55;;;17.73;;
35120;SDS011;21297;52.008;4.576;2024-02-04T04:30:11;43.90;;;17.05;;
35120;SDS011;21297;52.008;4.576;2024-02-04T04:32:57;43.85;;;15.75;;
35120;SDS011;21297;52.008;4.576;2024-02-04T04:35:44;43.40;;;17.27;;
35120;SDS011;21297;52.008;4.576;2024-02-04T04:38:29;41.65;;;17.70;;
35120;SDS011;21297;52.008;4.576;2024-02-04T04:41:15;54.70;;;19.75;;
35120;SDS011;21297;52.008;4.576;2024-02-04T04:44:01;45.50;;;19.70;;
35120;SDS011;21297;52.008;4.576;2024-02-04T04:46:47;52.35;;;19.30;;
35120;SDS011;21297;52.008;4.576;2024-02-04T04:49:33;48.03;;;17.00;;
35120;SDS011;21297;52.008;4.576;2024-02-04T04:52:19;39.63;;;15.73;;
35120;SDS011;21297;52.008;4.576;2024-02-04T04:55:04;50.10;;;17.30;;
35120;SDS011;21297;52.008;4.576;2024-02-04T04:57:50;41.33;;;17.60;;
35120;SDS011;21297;52.008;4.576;2024-02-04T05:00:37;41.53;;;16.13;;
35120;SDS011;21297;52.008;4.576;2024-02-04T05:03:23;39.40;;;16.33;;
35120;SDS011;21297;52.008;4.576;2024-02-04T05:06:08;43.00;;;16.73;;
35120;SDS011;21297;52.008;4.576;2024-02-04T05:08:54;40.97;;;16.00;;
35120;SDS011;21297;52.008;4.576;2024-02-04T05:11:40;44.70;;;15.77;;
35120;SDS011;21297;52.008;4.576;2024-02-04T05:14:25;44.78;;;15.45;;
35120;SDS011;21297;52.008;4.576;2024-02-04T05:17:11;46.92;;;14.98;;
35120;SDS011;21297;52.008;4.576;2024-02-04T05:19:57;38.05;;;14.50;;
35120;SDS011;21297;52.008;4.576;2024-02-04T05:22:42;35.03;;;13.98;;
35120;SDS011;21297;52.008;4.576;2024-02-04T05:25:28;41.05;;;12.93;;
35120;SDS011;21297;52.008;4.576;2024-02-04T05:28:14;45.28;;;13.30;;
35120;SDS011;21297;52.008;4.576;2024-02-04T05:31:01;35.83;;;13.63;;
35120;SDS011;21297;52.008;4.576;2024-02-04T05:33:47;36.20;;;13.38;;
35120;SDS011;21297;52.008;4.576;2024-02-04T05:36:33;39.38;;;12.38;;
35120;SDS011;21297;52.008;4.576;2024-02-04T05:39:18;34.28;;;13.57;;
35120;SDS011;21297;52.008;4.576;2024-02-04T05:42:04;40.25;;;14.15;;
35120;SDS011;21297;52.008;4.576;2024-02-04T05:44:50;38.40;;;12.05;;
35120;SDS011;21297;52.008;4.576;2024-02-04T05:47:35;30.13;;;12.38;;
35120;SDS011;21297;52.008;4.576;2024-02-04T05:50:22;34.72;;;13.13;;
35120;SDS011;21297;52.008;4.576;2024-02-04T05:53:07;40.88;;;13.73;;
35120;SDS011;21297;52.008;4.576;2024-02-04T05:55:53;42.65;;;11.85;;
35120;SDS011;21297;52.008;4.576;2024-02-04T05:58:39;30.30;;;10.38;;
35120;SDS011;21297;52.008;4.576;2024-02-04T06:01:25;30.67;;;9.45;;
35120;SDS011;21297;52.008;4.576;2024-02-04T06:04:10;23.85;;;8.10;;
35120;SDS011;21297;52.008;4.576;2024-02-04T06:06:56;24.65;;;8.18;;
35120;SDS011;21297;52.008;4.576;2024-02-04T06:09:42;25.42;;;8.05;;
35120;SDS011;21297;52.008;4.576;2024-02-04T06:12:27;28.95;;;9.25;;
35120;SDS011;21297;52.008;4.576;2024-02-04T06:15:16;33.85;;;10.23;;
35120;SDS011;21297;52.008;4.576;2024-02-04T06:18:02;28.38;;;8.90;;
35120;SDS011;21297;52.008;4.576;2024-02-04T06:20:48;27.58;;;10.82;;
35120;SDS011;21297;52.008;4.576;2024-02-04T06:23:33;26.52;;;10.40;;
35120;SDS011;21297;52.008;4.576;2024-02-04T06:26:19;32.92;;;9.52;;
35120;SDS011;21297;52.008;4.576;2024-02-04T06:29:05;19.10;;;9.65;;
35120;SDS011;21297;52.008;4.576;2024-02-04T06:31:50;33.25;;;10.07;;
35120;SDS011;21297;52.008;4.576;2024-02-04T06:34:36;24.40;;;9.57;;
35120;SDS011;21297;52.008;4.576;2024-02-04T06:37:22;29.10;;;9.95;;
35120;SDS011;21297;52.008;4.576;2024-02-04T06:40:08;29.25;;;9.80;;
35120;SDS011;21297;52.008;4.576;2024-02-04T06:42:55;26.73;;;10.60;;
35120;SDS011;21297;52.008;4.576;2024-02-04T06:45:41;29.83;;;10.05;;
35120;SDS011;21297;52.008;4.576;2024-02-04T06:48:26;36.40;;;10.80;;
35120;SDS011;21297;52.008;4.576;2024-02-04T06:51:12;25.60;;;9.43;;
35120;SDS011;21297;52.008;4.576;2024-02-04T06:53:58;26.50;;;7.68;;
35120;SDS011;21297;52.008;4.576;2024-02-04T06:56:43;28.33;;;8.95;;
35120;SDS011;21297;52.008;4.576;2024-02-04T06:59:29;27.98;;;9.13;;
35120;SDS011;21297;52.008;4.576;2024-02-04T07:02:14;24.38;;;8.18;;
35120;SDS011;21297;52.008;4.576;2024-02-04T07:05:00;24.58;;;7.85;;
35120;SDS011;21297;52.008;4.576;2024-02-04T07:07:46;27.67;;;7.88;;
35120;SDS011;21297;52.008;4.576;2024-02-04T07:10:32;29.23;;;9.18;;
35120;SDS011;21297;52.008;4.576;2024-02-04T07:13:17;24.13;;;8.35;;
35120;SDS011;21297;52.008;4.576;2024-02-04T07:16:03;23.60;;;8.82;;
35120;SDS011;21297;52.008;4.576;2024-02-04T07:18:49;36.08;;;10.13;;
35120;SDS011;21297;52.008;4.576;2024-02-04T07:21:35;29.48;;;10.40;;
35120;SDS011;21297;52.008;4.576;2024-02-04T07:24:20;27.98;;;10.25;;
35120;SDS011;21297;52.008;4.576;2024-02-04T07:27:06;32.83;;;9.93;;
35120;SDS011;21297;52.008;4.576;2024-02-04T07:29:52;28.65;;;9.38;;
35120;SDS011;21297;52.008;4.576;2024-02-04T07:32:40;30.15;;;8.45;;
35120;SDS011;21297;52.008;4.576;2024-02-04T07:35:25;38.63;;;9.35;;
35120;SDS011;21297;52.008;4.576;2024-02-04T07:38:11;29.77;;;8.05;;
35120;SDS011;21297;52.008;4.576;2024-02-04T07:40:57;28.63;;;7.60;;
35120;SDS011;21297;52.008;4.576;2024-02-04T07:43:44;29.45;;;7.57;;
35120;SDS011;21297;52.008;4.576;2024-02-04T07:46:30;26.33;;;8.18;;
35120;SDS011;21297;52.008;4.576;2024-02-04T07:49:15;32.50;;;7.68;;
35120;SDS011;21297;52.008;4.576;2024-02-04T07:52:01;18.02;;;6.32;;
35120;SDS011;21297;52.008;4.576;2024-02-04T07:54:47;26.67;;;7.53;;
35120;SDS011;21297;52.008;4.576;2024-02-04T07:57:33;21.05;;;6.55;;
35120;SDS011;21297;52.008;4.576;2024-02-04T08:00:18;21.40;;;8.30;;
35120;SDS011;21297;52.008;4.576;2024-02-04T08:03:04;29.38;;;7.38;;
35120;SDS011;21297;52.008;4.576;2024-02-04T08:05:50;22.13;;;5.80;;
35120;SDS011;21297;52.008;4.576;2024-02-04T08:08:35;22.00;;;5.47;;
35120;SDS011;21297;52.008;4.576;2024-02-04T08:11:21;19.85;;;5.50;;
35120;SDS011;21297;52.008;4.576;2024-02-04T08:14:07;24.08;;;6.22;;
35120;SDS011;21297;52.008;4.576;2024-02-04T08:16:52;17.23;;;5.22;;
35120;SDS011;21297;52.008;4.576;2024-02-04T08:19:38;23.42;;;4.43;;
35120;SDS011;21297;52.008;4.576;2024-02-04T08:22:23;19.10;;;5.10;;
35120;SDS011;21297;52.008;4.576;2024-02-04T08:25:09;22.58;;;4.50;;
35120;SDS011;21297;52.008;4.576;2024-02-04T08:27:57;16.27;;;4.43;;
35120;SDS011;21297;52.008;4.576;2024-02-04T08:30:43;17.30;;;4.88;;
35120;SDS011;21297;52.008;4.576;2024-02-04T08:33:29;19.55;;;4.60;;
35120;SDS011;21297;52.008;4.576;2024-02-04T08:36:14;18.23;;;4.00;;
35120;SDS011;21297;52.008;4.576;2024-02-04T08:39:01;11.98;;;3.42;;
35120;SDS011;21297;52.008;4.576;2024-02-04T08:41:46;15.85;;;3.95;;
35120;SDS011;21297;52.008;4.576;2024-02-04T08:44:32;25.40;;;4.07;;
35120;SDS011;21297;52.008;4.576;2024-02-04T08:47:17;17.13;;;3.30;;
35120;SDS011;21297;52.008;4.576;2024-02-04T08:50:04;14.68;;;2.95;;
35120;SDS011;21297;52.008;4.576;2024-02-04T08:52:50;15.77;;;3.42;;
35120;SDS011;21297;52.008;4.576;2024-02-04T08:55:36;15.82;;;3.40;;
35120;SDS011;21297;52.008;4.576;2024-02-04T08:58:22;17.17;;;3.03;;
35120;SDS011;21297;52.008;4.576;2024-02-04T09:01:07;14.40;;;3.75;;
35120;SDS011;21297;52.008;4.576;2024-02-04T09:03:53;21.55;;;3.70;;
35120;SDS011;21297;52.008;4.576;2024-02-04T09:06:39;27.65;;;4.05;;
35120;SDS011;21297;52.008;4.576;2024-02-04T09:09:24;16.85;;;2.72;;
35120;SDS011;21297;52.008;4.576;2024-02-04T09:12:10;11.90;;;2.72;;
35120;SDS011;21297;52.008;4.576;2024-02-04T09:14:56;10.65;;;2.33;;
35120;SDS011;21297;52.008;4.576;2024-02-04T09:17:41;13.88;;;3.53;;
35120;SDS011;21297;52.008;4.576;2024-02-04T09:20:27;16.65;;;2.83;;
35120;SDS011;21297;52.008;4.576;2024-02-04T09:23:13;14.35;;;2.40;;
35120;SDS011;21297;52.008;4.576;2024-02-04T09:25:59;19.75;;;3.35;;
35120;SDS011;21297;52.008;4.576;2024-02-04T09:28:44;10.85;;;2.50;;
35120;SDS011;21297;52.008;4.576;2024-02-04T09:31:30;14.05;;;3.03;;
35120;SDS011;21297;52.008;4.576;2024-02-04T09:34:16;10.88;;;2.60;;
35120;SDS011;21297;52.008;4.576;2024-02-04T09:37:01;10.88;;;1.92;;
35120;SDS011;21297;52.008;4.576;2024-02-04T09:39:48;4.53;;;1.33;;
35120;SDS011;21297;52.008;4.576;2024-02-04T09:42:33;5.05;;;1.20;;
35120;SDS011;21297;52.008;4.576;2024-02-04T09:45:20;7.07;;;1.63;;
35120;SDS011;21297;52.008;4.576;2024-02-04T09:48:06;8.35;;;2.60;;
35120;SDS011;21297;52.008;4.576;2024-02-04T09:50:53;10.25;;;3.40;;
35120;SDS011;21297;52.008;4.576;2024-02-04T09:53:40;15.57;;;6.05;;
35120;SDS011;21297;52.008;4.576;2024-02-04T09:56:29;14.77;;;5.72;;
35120;SDS011;21297;52.008;4.576;2024-02-04T09:59:17;13.88;;;5.13;;
35120;SDS011;21297;52.008;4.576;2024-02-04T10:02:03;15.35;;;5.25;;
35120;SDS011;21297;52.008;4.576;2024-02-04T10:04:50;25.45;;;8.05;;
35120;SDS011;21297;52.008;4.576;2024-02-04T10:07:36;24.80;;;4.85;;
35120;SDS011;21297;52.008;4.576;2024-02-04T10:10:22;18.17;;;4.03;;
35120;SDS011;21297;52.008;4.576;2024-02-04T10:13:08;19.10;;;4.25;;
35120;SDS011;21297;52.008;4.576;2024-02-04T10:15:54;21.35;;;4.28;;
35120;SDS011;21297;52.008;4.576;2024-02-04T10:18:41;27.30;;;4.88;;
35120;SDS011;21297;52.008;4.576;2024-02-04T10:21:30;16.40;;;3.47;;
35120;SDS011;21297;52.008;4.576;2024-02-04T10:24:16;19.33;;;3.55;;
35120;SDS011;21297;52.008;4.576;2024-02-04T10:27:01;21.70;;;3.20;;
35120;SDS011;21297;52.008;4.576;2024-02-04T10:29:47;21.13;;;3.17;;
35120;SDS011;21297;52.008;4.576;2024-02-04T10:32:33;23.25;;;3.95;;
35120;SDS011;21297;52.008;4.576;2024-02-04T10:35:20;15.68;;;2.85;;
35120;SDS011;21297;52.008;4.576;2024-02-04T10:38:08;20.48;;;3.30;;
35120;SDS011;21297;52.008;4.576;2024-02-04T10:40:55;21.58;;;3.30;;
35120;SDS011;21297;52.008;4.576;2024-02-04T10:43:43;16.75;;;3.30;;
35120;SDS011;21297;52.008;4.576;2024-02-04T10:46:30;15.18;;;2.50;;
35120;SDS011;21297;52.008;4.576;2024-02-04T10:49:17;16.98;;;3.70;;
35120;SDS011;21297;52.008;4.576;2024-02-04T10:52:05;10.77;;;2.80;;
35120;SDS011;21297;52.008;4.576;2024-02-04T10:54:53;14.65;;;2.55;;
35120;SDS011;21297;52.008;4.576;2024-02-04T10:57:39;14.43;;;3.30;;
35120;SDS011;21297;52.008;4.576;2024-02-04T11:00:25;17.88;;;3.60;;
35120;SDS011;21297;52.008;4.576;2024-02-04T11:03:12;13.90;;;2.70;;
35120;SDS011;21297;52.008;4.576;2024-02-04T11:06:00;14.32;;;2.75;;
35120;SDS011;21297;52.008;4.576;2024-02-04T11:08:47;26.02;;;3.40;;
35120;SDS011;21297;52.008;4.576;2024-02-04T11:11:33;13.93;;;2.50;;
35120;SDS011;21297;52.008;4.576;2024-02-04T11:14:19;17.58;;;3.22;;
35120;SDS011;21297;52.008;4.576;2024-02-04T11:17:21;13.45;;;2.90;;
35120;SDS011;21297;52.008;4.576;2024-02-04T11:26:45;17.65;;;3.08;;
35120;SDS011;21297;52.008;4.576;2024-02-04T11:29:31;20.20;;;3.33;;
35120;SDS011;21297;52.008;4.576;2024-02-04T11:32:18;17.50;;;3.92;;
35120;SDS011;21297;52.008;4.576;2024-02-04T11:35:03;24.83;;;4.30;;
35120;SDS011;21297;52.008;4.576;2024-02-04T11:37:53;20.58;;;3.10;;
35120;SDS011;21297;52.008;4.576;2024-02-04T11:40:39;21.15;;;3.63;;
35120;SDS011;21297;52.008;4.576;2024-02-04T11:43:26;24.55;;;5.60;;
35120;SDS011;21297;52.008;4.576;2024-02-04T11:46:18;18.25;;;2.80;;
35120;SDS011;21297;52.008;4.576;2024-02-04T11:49:13;15.25;;;2.92;;
35120;SDS011;21297;52.008;4.576;2024-02-04T11:52:00;19.65;;;2.92;;
35120;SDS011;21297;52.008;4.576;2024-02-04T11:54:46;21.10;;;3.28;;
35120;SDS011;21297;52.008;4.576;2024-02-04T11:57:32;19.80;;;3.00;;
35120;SDS011;21297;52.008;4.576;2024-02-04T12:00:19;14.32;;;2.42;;
35120;SDS011;21297;52.008;4.576;2024-02-04T12:03:07;15.60;;;3.97;;
35120;SDS011;21297;52.008;4.576;2024-02-04T12:05:53;15.52;;;2.63;;
35120;SDS011;21297;52.008;4.576;2024-02-04T12:08:39;12.98;;;2.63;;
35120;SDS011;21297;52.008;4.576;2024-02-04T12:11:25;16.30;;;3.35;;
35120;SDS011;21297;52.008;4.576;2024-02-04T12:14:11;18.05;;;3.00;;
35120;SDS011;21297;52.008;4.576;2024-02-04T12:16:58;17.67;;;3.10;;
35120;SDS011;21297;52.008;4.576;2024-02-04T12:19:51;19.60;;;4.70;;
35120;SDS011;21297;52.008;4.576;2024-02-04T12:22:37;18.75;;;3.28;;
35120;SDS011;21297;52.008;4.576;2024-02-04T12:25:23;18.30;;;4.15;;
35120;SDS011;21297;52.008;4.576;2024-02-04T12:28:12;25.08;;;3.97;;
35120;SDS011;21297;52.008;4.576;2024-02-04T12:30:59;16.08;;;3.70;;
35120;SDS011;21297;52.008;4.576;2024-02-04T12:33:52;27.83;;;5.55;;
35120;SDS011;21297;52.008;4.576;2024-02-04T12:36:43;15.73;;;4.00;;
35120;SDS011;21297;52.008;4.576;2024-02-04T12:39:28;18.60;;;3.95;;
35120;SDS011;21297;52.008;4.576;2024-02-04T12:42:17;22.70;;;3.80;;
35120;SDS011;21297;52.008;4.576;2024-02-04T12:47:57;18.77;;;4.03;;
35120;SDS011;21297;52.008;4.576;2024-02-04T12:50:43;30.90;;;5.72;;
35120;SDS011;21297;52.008;4.576;2024-02-04T12:53:29;25.67;;;4.88;;
35120;SDS011;21297;52.008;4.576;2024-02-04T12:56:14;24.02;;;4.45;;
35120;SDS011;21297;52.008;4.576;2024-02-04T12:59:00;25.55;;;3.65;;
35120;SDS011;21297;52.008;4.576;2024-02-04T13:01:46;25.38;;;4.70;;
35120;SDS011;21297;52.008;4.576;2024-02-04T13:04:37;22.48;;;3.47;;
35120;SDS011;21297;52.008;4.576;2024-02-04T13:07:24;21.80;;;4.13;;
35120;SDS011;21297;52.008;4.576;2024-02-04T13:10:13;19.85;;;3.70;;
35120;SDS011;21297;52.008;4.576;2024-02-04T13:15:50;19.33;;;3.55;;
35120;SDS011;21297;52.008;4.576;2024-02-04T13:18:36;18.73;;;3.30;;
35120;SDS011;21297;52.008;4.576;2024-02-04T13:21:22;21.30;;;4.22;;
35120;SDS011;21297;52.008;4.576;2024-02-04T13:24:07;13.73;;;2.58;;
35120;SDS011;21297;52.008;4.576;2024-02-04T13:26:53;19.75;;;3.45;;
35120;SDS011;21297;52.008;4.576;2024-02-04T13:29:38;17.20;;;2.53;;
35120;SDS011;21297;52.008;4.576;2024-02-04T13:32:24;19.63;;;3.90;;
35120;SDS011;21297;52.008;4.576;2024-02-04T13:35:10;20.63;;;3.42;;
35120;SDS011;21297;52.008;4.576;2024-02-04T13:37:56;19.15;;;2.72;;
35120;SDS011;21297;52.008;4.576;2024-02-04T13:40:42;16.38;;;2.65;;
35120;SDS011;21297;52.008;4.576;2024-02-04T13:43:27;23.08;;;3.80;;
35120;SDS011;21297;52.008;4.576;2024-02-04T13:46:13;22.98;;;4.20;;
35120;SDS011;21297;52.008;4.576;2024-02-04T13:48:59;19.17;;;3.45;;
35120;SDS011;21297;52.008;4.576;2024-02-04T13:51:45;19.95;;;3.20;;
35120;SDS011;21297;52.008;4.576;2024-02-04T13:54:30;17.02;;;3.22;;
35120;SDS011;21297;52.008;4.576;2024-02-04T13:57:16;16.33;;;3.20;;
35120;SDS011;21297;52.008;4.576;2024-02-04T14:00:02;27.83;;;3.35;;
35120;SDS011;21297;52.008;4.576;2024-02-04T14:02:51;19.55;;;3.92;;
35120;SDS011;21297;52.008;4.576;2024-02-04T14:05:37;21.27;;;3.00;;
35120;SDS011;21297;52.008;4.576;2024-02-04T14:08:22;19.00;;;3.92;;
35120;SDS011;21297;52.008;4.576;2024-02-04T14:11:08;16.45;;;3.80;;
35120;SDS011;21297;52.008;4.576;2024-02-04T14:13:54;20.27;;;4.53;;
35120;SDS011;21297;52.008;4.576;2024-02-04T14:16:39;22.40;;;3.13;;
35120;SDS011;21297;52.008;4.576;2024-02-04T14:19:25;18.38;;;3.30;;
35120;SDS011;21297;52.008;4.576;2024-02-04T14:22:11;28.88;;;5.45;;
35120;SDS011;21297;52.008;4.576;2024-02-04T14:24:56;19.80;;;3.22;;
35120;SDS011;21297;52.008;4.576;2024-02-04T14:27:42;16.60;;;3.58;;
35120;SDS011;21297;52.008;4.576;2024-02-04T14:30:28;20.02;;;3.70;;
35120;SDS011;21297;52.008;4.576;2024-02-04T14:33:14;19.40;;;3.13;;
35120;SDS011;21297;52.008;4.576;2024-02-04T14:35:59;26.08;;;5.70;;
35120;SDS011;21297;52.008;4.576;2024-02-04T14:38:45;23.35;;;3.97;;
35120;SDS011;21297;52.008;4.576;2024-02-04T14:41:34;17.25;;;3.22;;
35120;SDS011;21297;52.008;4.576;2024-02-04T14:44:20;22.67;;;4.07;;
35120;SDS011;21297;52.008;4.576;2024-02-04T14:47:06;22.98;;;3.67;;
35120;SDS011;21297;52.008;4.576;2024-02-04T14:49:52;18.70;;;4.20;;
35120;SDS011;21297;52.008;4.576;2024-02-04T14:52:37;27.50;;;3.53;;
35120;SDS011;21297;52.008;4.576;2024-02-04T14:55:23;26.73;;;3.92;;
35120;SDS011;21297;52.008;4.576;2024-02-04T14:58:09;23.83;;;4.32;;
35120;SDS011;21297;52.008;4.576;2024-02-04T15:00:55;23.98;;;3.47;;
35120;SDS011;21297;52.008;4.576;2024-02-04T15:03:41;19.15;;;3.80;;
35120;SDS011;21297;52.008;4.576;2024-02-04T15:06:27;25.83;;;4.90;;
35120;SDS011;21297;52.008;4.576;2024-02-04T15:09:14;17.10;;;3.58;;
35120;SDS011;21297;52.008;4.576;2024-02-04T15:12:00;24.20;;;4.35;;
35120;SDS011;21297;52.008;4.576;2024-02-04T15:14:46;22.65;;;3.88;;
35120;SDS011;21297;52.008;4.576;2024-02-04T15:17:32;20.10;;;4.28;;
35120;SDS011;21297;52.008;4.576;2024-02-04T15:20:19;27.38;;;4.45;;
35120;SDS011;21297;52.008;4.576;2024-02-04T15:23:06;19.13;;;3.50;;
35120;SDS011;21297;52.008;4.576;2024-02-04T15:25:53;24.08;;;4.35;;
35120;SDS011;21297;52.008;4.576;2024-02-04T15:28:39;30.70;;;4.55;;
35120;SDS011;21297;52.008;4.576;2024-02-04T15:31:26;35.10;;;5.47;;
35120;SDS011;21297;52.008;4.576;2024-02-04T15:34:13;28.27;;;3.92;;
35120;SDS011;21297;52.008;4.576;2024-02-04T15:36:59;24.50;;;5.47;;
35120;SDS011;21297;52.008;4.576;2024-02-04T15:39:45;25.60;;;5.07;;
35120;SDS011;21297;52.008;4.576;2024-02-04T15:42:31;30.75;;;5.07;;
35120;SDS011;21297;52.008;4.576;2024-02-04T15:45:16;34.85;;;5.50;;
35120;SDS011;21297;52.008;4.576;2024-02-04T15:48:03;26.58;;;4.80;;
35120;SDS011;21297;52.008;4.576;2024-02-04T15:50:49;35.40;;;5.53;;
35120;SDS011;21297;52.008;4.576;2024-02-04T15:53:35;33.13;;;6.15;;
35120;SDS011;21297;52.008;4.576;2024-02-04T15:56:21;30.23;;;4.53;;
35120;SDS011;21297;52.008;4.576;2024-02-04T15:59:09;28.20;;;5.40;;
35120;SDS011;21297;52.008;4.576;2024-02-04T16:01:58;32.63;;;5.80;;
35120;SDS011;21297;52.008;4.576;2024-02-04T16:04:44;35.72;;;5.78;;
35120;SDS011;21297;52.008;4.576;2024-02-04T16:07:36;34.88;;;4.68;;
35120;SDS011;21297;52.008;4.576;2024-02-04T16:10:22;33.67;;;4.95;;
35120;SDS011;21297;52.008;4.576;2024-02-04T16:13:09;34.30;;;5.82;;
35120;SDS011;21297;52.008;4.576;2024-02-04T16:15:59;27.63;;;5.17;;
35120;SDS011;21297;52.008;4.576;2024-02-04T16:18:48;25.10;;;4.40;;
35120;SDS011;21297;52.008;4.576;2024-02-04T16:21:33;36.63;;;5.90;;
35120;SDS011;21297;52.008;4.576;2024-02-04T16:24:20;28.27;;;5.65;;
35120;SDS011;21297;52.008;4.576;2024-02-04T16:27:05;37.35;;;5.45;;
35120;SDS011;21297;52.008;4.576;2024-02-04T16:29:51;29.73;;;5.50;;
35120;SDS011;21297;52.008;4.576;2024-02-04T16:32:37;28.10;;;5.45;;
35120;SDS011;21297;52.008;4.576;2024-02-04T16:35:23;28.88;;;5.13;;